Time,TemperatureF,DewpointF,PressureIn,WindDirection,WindDirectionDegrees,WindSpeedMPH,WindSpeedGustMPH,Humidity,HourlyPrecipIn,Conditions,Clouds,dailyrainin,SoftwareType,DateUTC
2013-12-08 00:04:00,29.7,25.2,29.65,North,0,0.0,0.0,83,0.00,,,0.00,WUHU216HW,2013-12-08 06:04:00,
2013-12-08 00:09:00,29.7,25.5,29.65,North,0,0.0,0.0,84,0.00,,,0.00,WUHU216HW,2013-12-08 06:09:00,
2013-12-08 00:14:00,29.5,25.6,29.65,North,0,0.0,0.0,85,0.00,,,0.00,WUHU216HW,2013-12-08 06:14:00,
2013-12-08 00:19:00,29.5,25.6,29.65,North,0,0.0,0.0,85,0.00,,,0.00,WUHU216HW,2013-12-08 06:19:00,
2013-12-08 00:24:00,29.5,25.6,29.65,North,0,0.0,0.0,85,0.00,,,0.00,WUHU216HW,2013-12-08 06:24:00,
2013-12-08 00:29:00,29.7,25.7,29.65,North,0,0.0,0.0,85,0.00,,,0.00,WUHU216HW,2013-12-08 06:29:00,
2013-12-08 00:34:00,29.9,25.7,29.66,North,0,0.0,0.0,84,0.00,,,0.00,WUHU216HW,2013-12-08 06:34:00,
2013-12-08 00:39:00,29.9,25.7,29.65,North,0,0.0,0.0,84,0.00,,,0.00,WUHU216HW,2013-12-08 06:39:00,
2013-12-08 00:44:00,29.9,25.4,29.64,North,0,0.0,0.0,83,0.00,,,0.00,WUHU216HW,2013-12-08 06:44:00,
2013-12-08 00:49:00,29.9,25.4,29.64,North,0,0.0,0.0,83,0.00,,,0.00,WUHU216HW,2013-12-08 06:49:00,
2013-12-08 00:54:00,30.1,25.6,29.63,North,0,0.0,0.0,83,0.00,,,0.00,WUHU216HW,2013-12-08 06:54:00,
2013-12-08 00:59:00,30.2,25.8,29.63,North,0,0.0,0.0,83,0.00,,,0.00,WUHU216HW,2013-12-08 06:59:00,
2013-12-08 01:04:00,30.1,25.6,29.63,North,0,0.0,0.0,83,0.00,,,0.00,WUHU216HW,2013-12-08 07:04:00,
2013-12-08 01:09:00,30.2,25.8,29.63,North,0,0.0,0.0,83,0.00,,,0.00,WUHU216HW,2013-12-08 07:09:00,
2013-12-08 01:15:00,30.1,25.2,29.63,North,0,0.0,0.0,82,0.00,,,0.00,WUHU216HW,2013-12-08 07:15:00,
2013-12-08 01:20:00,30.2,25.4,29.63,North,0,0.0,0.0,82,0.00,,,0.00,WUHU216HW,2013-12-08 07:20:00,
2013-12-08 01:25:00,30.4,25.6,29.63,North,0,0.0,0.0,82,0.00,,,0.00,WUHU216HW,2013-12-08 07:25:00,
2013-12-08 01:30:00,30.6,25.7,29.62,North,0,0.0,0.0,82,0.00,,,0.00,WUHU216HW,2013-12-08 07:30:00,
2013-12-08 01:35:00,30.6,25.7,29.61,North,0,0.0,0.0,82,0.00,,,0.00,WUHU216HW,2013-12-08 07:35:00,
2013-12-08 01:40:00,30.6,25.5,29.61,North,0,0.0,0.0,81,0.00,,,0.00,WUHU216HW,2013-12-08 07:40:00,
2013-12-08 01:45:00,30.6,25.5,29.61,North,0,0.0,0.0,81,0.00,,,0.00,WUHU216HW,2013-12-08 07:45:00,
2013-12-08 01:50:00,30.8,25.7,29.61,North,0,0.0,0.0,81,0.00,,,0.00,WUHU216HW,2013-12-08 07:50:00,
2013-12-08 01:55:00,30.8,25.7,29.60,North,0,0.0,0.0,81,0.00,,,0.00,WUHU216HW,2013-12-08 07:55:00,
2013-12-08 02:00:00,30.8,25.7,29.60,North,0,0.0,0.0,81,0.00,,,0.00,WUHU216HW,2013-12-08 08:00:00,
2013-12-08 02:05:00,30.8,25.7,29.60,North,0,0.0,0.0,81,0.00,,,0.00,WUHU216HW,2013-12-08 08:05:00,
2013-12-08 02:10:00,31.0,25.8,29.60,North,0,0.0,0.0,81,0.00,,,0.00,WUHU216HW,2013-12-08 08:10:00,
2013-12-08 02:15:00,31.0,25.8,29.59,North,0,0.0,0.0,81,0.00,,,0.00,WUHU216HW,2013-12-08 08:15:00,
2013-12-08 02:20:00,31.0,25.8,29.60,North,0,0.0,0.0,81,0.00,,,0.00,WUHU216HW,2013-12-08 08:20:00,
2013-12-08 02:25:00,31.1,26.0,29.60,North,0,0.0,0.0,81,0.00,,,0.00,WUHU216HW,2013-12-08 08:25:00,
2013-12-08 02:30:00,31.1,26.0,29.59,North,0,0.0,0.0,81,0.00,,,0.00,WUHU216HW,2013-12-08 08:30:00,
2013-12-08 02:35:00,31.0,25.6,29.59,North,0,0.0,0.0,80,0.00,,,0.00,WUHU216HW,2013-12-08 08:35:00,
2013-12-08 02:40:00,31.0,25.6,29.59,North,0,0.0,0.0,80,0.00,,,0.00,WUHU216HW,2013-12-08 08:40:00,
2013-12-08 02:45:00,31.1,25.7,29.59,North,0,0.0,0.0,80,0.00,,,0.00,WUHU216HW,2013-12-08 08:45:00,
2013-12-08 02:51:00,31.1,25.7,29.59,North,0,0.0,0.0,80,0.00,,,0.00,WUHU216HW,2013-12-08 08:51:00,
2013-12-08 02:56:00,31.3,25.9,29.59,North,0,0.0,0.0,80,0.00,,,0.00,WUHU216HW,2013-12-08 08:56:00,
2013-12-08 03:01:00,31.3,25.9,29.59,North,0,0.0,0.0,80,0.00,,,0.00,WUHU216HW,2013-12-08 09:01:00,
2013-12-08 03:06:00,31.5,26.1,29.58,North,0,0.0,0.0,80,0.00,,,0.00,WUHU216HW,2013-12-08 09:06:00,
2013-12-08 03:11:00,31.5,25.7,29.59,North,0,0.0,0.0,79,0.00,,,0.00,WUHU216HW,2013-12-08 09:11:00,
2013-12-08 03:16:00,31.7,25.9,29.59,North,0,0.0,0.0,79,0.00,,,0.00,WUHU216HW,2013-12-08 09:16:00,
2013-12-08 03:21:00,31.5,25.7,29.58,North,0,0.0,0.0,79,0.00,,,0.00,WUHU216HW,2013-12-08 09:21:00,
2013-12-08 03:26:00,31.7,25.9,29.58,North,0,0.0,0.0,79,0.00,,,0.00,WUHU216HW,2013-12-08 09:26:00,
2013-12-08 03:31:00,31.7,25.9,29.58,North,0,0.0,0.0,79,0.00,,,0.00,WUHU216HW,2013-12-08 09:31:00,
2013-12-08 03:36:00,31.7,25.9,29.57,North,0,0.0,0.0,79,0.00,,,0.00,WUHU216HW,2013-12-08 09:36:00,
2013-12-08 03:41:00,31.9,26.1,29.58,North,0,0.0,0.0,79,0.00,,,0.00,WUHU216HW,2013-12-08 09:41:00,
2013-12-08 03:46:00,31.9,26.1,29.57,North,0,0.0,0.0,79,0.00,,,0.00,WUHU216HW,2013-12-08 09:46:00,
2013-12-08 03:51:00,32.0,26.3,29.57,North,0,0.0,0.0,79,0.00,,,0.00,WUHU216HW,2013-12-08 09:51:00,
2013-12-08 03:56:00,32.0,26.6,29.57,North,0,0.0,0.0,80,0.00,,,0.00,WUHU216HW,2013-12-08 09:56:00,
2013-12-08 04:01:00,31.9,26.1,29.57,North,0,0.0,0.0,79,0.00,,,0.00,WUHU216HW,2013-12-08 10:01:00,
2013-12-08 04:06:00,31.9,26.1,29.58,North,0,0.0,0.0,79,0.00,,,0.00,WUHU216HW,2013-12-08 10:06:00,
2013-12-08 04:11:00,32.0,26.3,29.57,North,0,0.0,0.0,79,0.00,,,0.00,WUHU216HW,2013-12-08 10:11:00,
2013-12-08 04:17:00,32.0,26.6,29.57,North,0,0.0,0.0,80,0.00,,,0.00,WUHU216HW,2013-12-08 10:17:00,
2013-12-08 04:22:00,32.0,26.6,29.57,North,0,0.0,0.0,80,0.00,,,0.00,WUHU216HW,2013-12-08 10:22:00,
2013-12-08 04:27:00,32.0,26.6,29.58,North,0,0.0,0.0,80,0.00,,,0.00,WUHU216HW,2013-12-08 10:27:00,
2013-12-08 04:32:00,32.2,26.8,29.57,North,0,0.0,0.0,80,0.00,,,0.00,WUHU216HW,2013-12-08 10:32:00,
2013-12-08 04:37:00,32.2,26.5,29.57,North,0,0.0,0.0,79,0.00,,,0.00,WUHU216HW,2013-12-08 10:37:00,
2013-12-08 04:42:00,32.2,26.5,29.57,North,0,0.0,0.0,79,0.00,,,0.00,WUHU216HW,2013-12-08 10:42:00,
2013-12-08 04:47:00,32.4,26.6,29.57,North,0,0.0,0.0,79,0.00,,,0.00,WUHU216HW,2013-12-08 10:47:00,
2013-12-08 04:52:00,32.4,26.6,29.57,North,0,0.0,0.0,79,0.00,,,0.00,WUHU216HW,2013-12-08 10:52:00,
2013-12-08 04:57:00,32.4,26.6,29.57,North,0,0.0,0.0,79,0.00,,,0.00,WUHU216HW,2013-12-08 10:57:00,
2013-12-08 05:02:00,32.6,26.8,29.57,North,0,0.0,0.0,79,0.00,,,0.00,WUHU216HW,2013-12-08 11:02:00,
2013-12-08 05:07:00,32.6,26.8,29.57,North,0,0.0,0.0,79,0.00,,,0.00,WUHU216HW,2013-12-08 11:07:00,
2013-12-08 05:12:00,32.6,26.8,29.57,North,0,0.0,0.0,79,0.00,,,0.00,WUHU216HW,2013-12-08 11:12:00,
2013-12-08 05:17:00,32.6,26.8,29.57,North,0,0.0,0.0,79,0.00,,,0.00,WUHU216HW,2013-12-08 11:17:00,
2013-12-08 05:22:00,32.8,27.0,29.56,North,0,0.0,0.0,79,0.00,,,0.00,WUHU216HW,2013-12-08 11:22:00,
2013-12-08 05:27:00,32.8,26.6,29.56,North,0,0.0,0.0,78,0.00,,,0.00,WUHU216HW,2013-12-08 11:27:00,
2013-12-08 05:32:00,32.8,26.6,29.56,North,0,0.0,0.0,78,0.00,,,0.00,WUHU216HW,2013-12-08 11:32:00,
2013-12-08 05:37:00,32.8,26.6,29.56,North,0,0.0,0.0,78,0.00,,,0.00,WUHU216HW,2013-12-08 11:37:00,
2013-12-08 05:42:00,32.9,26.8,29.56,North,0,0.0,0.0,78,0.00,,,0.00,WUHU216HW,2013-12-08 11:42:00,
2013-12-08 05:47:00,33.1,27.0,29.56,North,0,0.0,0.0,78,0.00,,,0.00,WUHU216HW,2013-12-08 11:47:00,
2013-12-08 05:53:00,33.1,27.0,29.56,North,0,0.0,0.0,78,0.00,,,0.00,WUHU216HW,2013-12-08 11:53:00,
2013-12-08 05:58:00,33.1,27.0,29.56,North,0,0.0,0.0,78,0.00,,,0.00,WUHU216HW,2013-12-08 11:58:00,
2013-12-08 06:03:00,32.9,26.8,29.56,North,0,0.0,0.0,78,0.00,,,0.00,WUHU216HW,2013-12-08 12:03:00,
2013-12-08 06:08:00,32.9,26.8,29.56,North,0,0.0,0.0,78,0.00,,,0.00,WUHU216HW,2013-12-08 12:08:00,
2013-12-08 06:13:00,32.9,26.8,29.56,North,0,0.0,0.0,78,0.00,,,0.00,WUHU216HW,2013-12-08 12:13:00,
2013-12-08 06:18:00,32.9,26.8,29.56,North,0,0.0,0.0,78,0.00,,,0.00,WUHU216HW,2013-12-08 12:18:00,
2013-12-08 06:23:00,33.1,27.0,29.57,North,0,0.0,0.0,78,0.00,,,0.00,WUHU216HW,2013-12-08 12:23:00,
2013-12-08 06:28:00,33.1,27.0,29.57,North,0,0.0,0.0,78,0.00,,,0.00,WUHU216HW,2013-12-08 12:28:00,
2013-12-08 06:33:00,33.3,27.1,29.56,North,0,0.0,0.0,78,0.00,,,0.00,WUHU216HW,2013-12-08 12:33:00,
2013-12-08 06:38:00,33.3,27.1,29.56,North,0,0.0,0.0,78,0.00,,,0.00,WUHU216HW,2013-12-08 12:38:00,
2013-12-08 06:43:00,33.3,27.1,29.57,North,0,0.0,0.0,78,0.00,,,0.00,WUHU216HW,2013-12-08 12:43:00,
2013-12-08 06:48:00,33.3,27.1,29.56,North,0,0.0,0.0,78,0.00,,,0.00,WUHU216HW,2013-12-08 12:48:00,
2013-12-08 06:53:00,33.5,27.3,29.57,North,0,0.0,0.0,78,0.00,,,0.00,WUHU216HW,2013-12-08 12:53:00,
2013-12-08 06:58:00,33.5,27.3,29.57,North,0,0.0,0.0,78,0.00,,,0.00,WUHU216HW,2013-12-08 12:58:00,
2013-12-08 07:03:00,33.5,27.3,29.57,North,0,0.0,0.0,78,0.00,,,0.00,WUHU216HW,2013-12-08 13:03:00,
2013-12-08 07:08:00,33.5,27.3,29.57,North,0,0.0,0.0,78,0.00,,,0.00,WUHU216HW,2013-12-08 13:08:00,
2013-12-08 07:13:00,33.5,27.3,29.57,North,0,0.0,0.0,78,0.00,,,0.00,WUHU216HW,2013-12-08 13:13:00,
2013-12-08 07:18:00,33.5,27.3,29.57,North,0,0.0,0.0,78,0.00,,,0.00,WUHU216HW,2013-12-08 13:18:00,
2013-12-08 07:23:00,33.5,27.3,29.57,North,0,0.0,0.0,78,0.00,,,0.00,WUHU216HW,2013-12-08 13:23:00,
2013-12-08 07:28:00,33.5,27.3,29.56,North,0,0.0,0.0,78,0.00,,,0.00,WUHU216HW,2013-12-08 13:28:00,
2013-12-08 07:34:00,33.7,27.5,29.56,North,0,0.0,0.0,78,0.00,,,0.00,WUHU216HW,2013-12-08 13:34:00,
2013-12-08 07:39:00,33.8,27.6,29.56,North,0,0.0,0.0,78,0.00,,,0.00,WUHU216HW,2013-12-08 13:39:00,
2013-12-08 07:44:00,33.8,27.9,29.56,North,0,0.0,0.0,79,0.00,,,0.00,WUHU216HW,2013-12-08 13:44:00,
2013-12-08 07:49:00,33.8,27.6,29.57,North,0,0.0,0.0,78,0.00,,,0.00,WUHU216HW,2013-12-08 13:49:00,
2013-12-08 07:54:00,33.8,27.6,29.56,North,0,0.0,0.0,78,0.00,,,0.00,WUHU216HW,2013-12-08 13:54:00,
2013-12-08 07:59:00,33.8,27.9,29.56,North,0,0.0,0.0,79,0.00,,,0.00,WUHU216HW,2013-12-08 13:59:00,
2013-12-08 08:04:00,34.0,28.1,29.57,North,0,0.0,0.0,79,0.00,,,0.00,WUHU216HW,2013-12-08 14:04:00,
2013-12-08 08:09:00,34.2,28.3,29.57,North,0,0.0,0.0,79,0.00,,,0.00,WUHU216HW,2013-12-08 14:09:00,
2013-12-08 08:14:00,34.2,28.3,29.57,North,0,0.0,0.0,79,0.00,,,0.00,WUHU216HW,2013-12-08 14:14:00,
2013-12-08 08:19:00,34.2,28.3,29.57,North,0,0.0,0.0,79,0.00,,,0.00,WUHU216HW,2013-12-08 14:19:00,
2013-12-08 08:24:00,33.8,27.9,29.57,North,0,0.0,0.0,79,0.00,,,0.00,WUHU216HW,2013-12-08 14:24:00,
2013-12-08 08:29:00,34.0,28.1,29.56,North,0,0.0,0.0,79,0.00,,,0.00,WUHU216HW,2013-12-08 14:29:00,
2013-12-08 08:35:00,34.2,28.3,29.57,North,0,0.0,0.0,79,0.00,,,0.00,WUHU216HW,2013-12-08 14:35:00,
2013-12-08 08:40:00,34.2,28.3,29.56,North,0,0.0,0.0,79,0.00,,,0.00,WUHU216HW,2013-12-08 14:40:00,
2013-12-08 08:45:00,34.2,28.6,29.57,North,0,0.0,0.0,80,0.00,,,0.00,WUHU216HW,2013-12-08 14:45:00,
2013-12-08 08:50:00,34.2,28.6,29.57,North,0,0.0,0.0,80,0.00,,,0.00,WUHU216HW,2013-12-08 14:50:00,
2013-12-08 08:55:00,34.6,29.0,29.57,North,0,0.0,0.0,80,0.00,,,0.00,WUHU216HW,2013-12-08 14:55:00,
2013-12-08 09:00:00,34.7,29.2,29.57,North,0,0.0,0.0,80,0.00,,,0.00,WUHU216HW,2013-12-08 15:00:00,
2013-12-08 09:05:00,34.9,29.3,29.58,North,0,0.0,0.0,80,0.00,,,0.00,WUHU216HW,2013-12-08 15:05:00,
2013-12-08 09:10:00,35.1,29.2,29.58,North,0,0.0,0.0,79,0.00,,,0.00,WUHU216HW,2013-12-08 15:10:00,
2013-12-08 09:15:00,35.1,29.5,29.58,North,0,0.0,0.0,80,0.00,,,0.00,WUHU216HW,2013-12-08 15:15:00,
2013-12-08 09:20:00,35.1,29.2,29.58,North,0,0.0,0.0,79,0.00,,,0.00,WUHU216HW,2013-12-08 15:20:00,
2013-12-08 09:25:00,35.1,29.5,29.58,North,0,0.0,0.0,80,0.00,,,0.00,WUHU216HW,2013-12-08 15:25:00,
2013-12-08 09:30:00,35.3,29.7,29.58,North,0,0.0,0.0,80,0.00,,,0.00,WUHU216HW,2013-12-08 15:30:00,
2013-12-08 09:35:00,35.5,29.9,29.59,North,0,0.0,0.0,80,0.00,,,0.00,WUHU216HW,2013-12-08 15:35:00,
2013-12-08 09:40:00,35.6,30.1,29.59,North,0,0.0,0.0,80,0.00,,,0.00,WUHU216HW,2013-12-08 15:40:00,
2013-12-08 09:45:00,36.0,30.4,29.59,North,0,0.0,0.0,80,0.00,,,0.00,WUHU216HW,2013-12-08 15:45:00,
2013-12-08 09:50:00,36.0,30.4,29.59,North,0,0.0,0.0,80,0.00,,,0.00,WUHU216HW,2013-12-08 15:50:00,
2013-12-08 09:55:00,35.8,30.2,29.59,North,0,0.0,0.0,80,0.00,,,0.00,WUHU216HW,2013-12-08 15:55:00,
2013-12-08 10:00:00,36.0,30.4,29.59,North,0,0.0,0.0,80,0.00,,,0.00,WUHU216HW,2013-12-08 16:00:00,
2013-12-08 10:06:00,36.4,30.8,29.58,North,0,0.0,0.0,80,0.00,,,0.00,WUHU216HW,2013-12-08 16:06:00,
2013-12-08 10:11:00,36.7,31.1,29.58,North,0,0.0,0.0,80,0.00,,,0.00,WUHU216HW,2013-12-08 16:11:00,
2013-12-08 10:16:00,36.9,31.3,29.58,North,0,0.0,0.0,80,0.00,,,0.00,WUHU216HW,2013-12-08 16:16:00,
2013-12-08 10:21:00,37.1,31.5,29.58,North,0,0.0,0.0,80,0.00,,,0.00,WUHU216HW,2013-12-08 16:21:00,
2013-12-08 10:26:00,37.1,31.5,29.58,North,0,0.0,0.0,80,0.00,,,0.00,WUHU216HW,2013-12-08 16:26:00,
2013-12-08 10:31:00,37.1,31.5,29.58,North,0,0.0,0.0,80,0.00,,,0.00,WUHU216HW,2013-12-08 16:31:00,
2013-12-08 10:36:00,37.1,31.5,29.58,North,0,0.0,0.0,80,0.00,,,0.00,WUHU216HW,2013-12-08 16:36:00,
2013-12-08 10:41:00,37.4,32.1,29.57,North,0,0.0,0.0,81,0.00,,,0.00,WUHU216HW,2013-12-08 16:41:00,
2013-12-08 10:46:00,37.8,32.2,29.57,North,0,0.0,0.0,80,0.00,,,0.00,WUHU216HW,2013-12-08 16:46:00,
2013-12-08 10:51:00,38.3,32.8,29.56,North,0,0.0,0.0,80,0.00,,,0.00,WUHU216HW,2013-12-08 16:51:00,
2013-12-08 10:56:00,38.9,33.3,29.56,North,0,0.0,0.0,80,0.00,,,0.00,WUHU216HW,2013-12-08 16:56:00,
2013-12-08 11:01:00,39.2,33.7,29.56,North,0,0.0,0.0,80,0.00,,,0.00,WUHU216HW,2013-12-08 17:01:00,
2013-12-08 11:06:00,39.4,33.5,29.55,North,0,0.0,0.0,79,0.00,,,0.00,WUHU216HW,2013-12-08 17:06:00,
2013-12-08 11:11:00,39.6,33.7,29.56,North,0,0.0,0.0,79,0.00,,,0.00,WUHU216HW,2013-12-08 17:11:00,
2013-12-08 11:16:00,40.0,33.9,29.55,North,0,0.0,0.0,79,0.00,,,0.00,WUHU216HW,2013-12-08 17:16:00,
2013-12-08 11:22:00,40.1,34.1,29.56,North,0,0.0,0.0,79,0.00,,,0.00,WUHU216HW,2013-12-08 17:22:00,
2013-12-08 11:27:00,40.5,34.5,29.55,North,0,0.0,0.0,79,0.00,,,0.00,WUHU216HW,2013-12-08 17:27:00,
2013-12-08 11:32:00,40.7,34.7,29.55,North,0,0.0,0.0,79,0.00,,,0.00,WUHU216HW,2013-12-08 17:32:00,
2013-12-08 11:37:00,40.7,34.7,29.55,North,0,0.0,0.0,79,0.00,,,0.00,WUHU216HW,2013-12-08 17:37:00,
2013-12-08 11:42:00,40.9,34.8,29.55,North,0,0.0,0.0,79,0.00,,,0.00,WUHU216HW,2013-12-08 17:42:00,
2013-12-08 11:47:00,41.0,34.9,29.54,North,0,0.0,0.0,79,0.00,,,0.00,WUHU216HW,2013-12-08 17:47:00,
2013-12-08 11:52:00,41.6,35.2,29.54,North,0,0.0,0.0,78,0.00,,,0.00,WUHU216HW,2013-12-08 17:52:00,
2013-12-08 11:57:00,41.8,35.4,29.53,North,0,0.0,0.0,78,0.00,,,0.00,WUHU216HW,2013-12-08 17:57:00,
2013-12-08 12:02:00,42.1,35.7,29.53,North,0,0.0,0.0,78,0.00,,,0.00,WUHU216HW,2013-12-08 18:02:00,
2013-12-08 12:07:00,42.3,35.9,29.53,North,0,0.0,0.0,78,0.00,,,0.00,WUHU216HW,2013-12-08 18:07:00,
2013-12-08 12:12:00,42.8,36.1,29.53,North,0,0.0,0.0,77,0.00,,,0.00,WUHU216HW,2013-12-08 18:12:00,
2013-12-08 12:17:00,43.0,36.3,29.52,North,0,0.0,0.0,77,0.00,,,0.00,WUHU216HW,2013-12-08 18:17:00,
2013-12-08 12:22:00,43.2,36.5,29.51,North,0,0.0,0.0,77,0.00,,,0.00,WUHU216HW,2013-12-08 18:22:00,
2013-12-08 12:27:00,43.7,37.0,29.51,North,0,0.0,0.0,77,0.00,,,0.00,WUHU216HW,2013-12-08 18:27:00,
2013-12-08 12:32:00,44.3,37.5,29.51,North,0,0.0,0.0,77,0.00,,,0.00,WUHU216HW,2013-12-08 18:32:00,
2013-12-08 12:37:00,44.8,38.1,29.50,North,0,0.0,0.0,77,0.00,,,0.00,WUHU216HW,2013-12-08 18:37:00,
2013-12-08 12:42:00,45.2,38.1,29.50,North,0,0.0,0.0,76,0.00,,,0.00,WUHU216HW,2013-12-08 18:42:00,
2013-12-08 12:48:00,45.4,37.9,29.49,North,0,0.0,0.0,75,0.00,,,0.00,WUHU216HW,2013-12-08 18:48:00,
2013-12-08 12:53:00,45.7,38.6,29.49,North,0,0.0,0.0,76,0.00,,,0.00,WUHU216HW,2013-12-08 18:53:00,
2013-12-08 12:58:00,45.9,38.4,29.48,North,0,0.0,0.0,75,0.00,,,0.00,WUHU216HW,2013-12-08 18:58:00,
2013-12-08 13:03:00,46.3,38.8,29.48,North,0,0.0,0.0,75,0.00,,,0.00,WUHU216HW,2013-12-08 19:03:00,
2013-12-08 13:08:00,46.3,38.4,29.48,North,0,0.0,0.0,74,0.00,,,0.00,WUHU216HW,2013-12-08 19:08:00,
2013-12-08 13:13:00,46.3,38.8,29.47,North,0,0.0,0.0,75,0.00,,,0.00,WUHU216HW,2013-12-08 19:13:00,
2013-12-08 13:18:00,46.6,39.2,29.47,North,0,0.0,0.0,75,0.00,,,0.00,WUHU216HW,2013-12-08 19:18:00,
2013-12-08 13:23:00,47.2,39.6,29.47,North,0,0.0,0.0,75,0.00,,,0.00,WUHU216HW,2013-12-08 19:23:00,
2013-12-08 13:28:00,47.3,39.4,29.47,North,0,0.0,0.0,74,0.00,,,0.00,WUHU216HW,2013-12-08 19:28:00,
2013-12-08 13:33:00,47.3,39.1,29.46,North,0,0.0,0.0,73,0.00,,,0.00,WUHU216HW,2013-12-08 19:33:00,
2013-12-08 13:38:00,47.2,38.6,29.46,North,0,0.0,0.0,72,0.00,,,0.00,WUHU216HW,2013-12-08 19:38:00,
2013-12-08 13:43:00,47.2,39.0,29.46,North,0,0.0,0.0,73,0.00,,,0.00,WUHU216HW,2013-12-08 19:43:00,
2013-12-08 13:48:00,47.9,40.0,29.46,North,0,0.0,0.0,74,0.00,,,0.00,WUHU216HW,2013-12-08 19:48:00,
2013-12-08 13:54:00,48.6,40.6,29.45,North,0,0.0,0.0,74,0.00,,,0.00,WUHU216HW,2013-12-08 19:54:00,
2013-12-08 13:59:00,49.0,40.6,29.45,North,0,0.0,0.0,73,0.00,,,0.00,WUHU216HW,2013-12-08 19:59:00,
2013-12-08 14:04:00,49.3,40.7,29.45,North,0,0.0,0.0,72,0.00,,,0.00,WUHU216HW,2013-12-08 20:04:00,
2013-12-08 14:09:00,49.5,40.9,29.45,North,0,0.0,0.0,72,0.00,,,0.00,WUHU216HW,2013-12-08 20:09:00,
2013-12-08 14:14:00,49.5,40.9,29.45,North,0,0.0,0.0,72,0.00,,,0.00,WUHU216HW,2013-12-08 20:14:00,
2013-12-08 14:19:00,49.7,41.1,29.45,North,0,0.0,0.0,72,0.00,,,0.00,WUHU216HW,2013-12-08 20:19:00,
2013-12-08 14:24:00,49.7,40.7,29.45,North,0,0.0,0.0,71,0.00,,,0.00,WUHU216HW,2013-12-08 20:24:00,
2013-12-08 14:29:00,50.0,41.1,29.45,North,0,0.0,0.0,71,0.00,,,0.00,WUHU216HW,2013-12-08 20:29:00,
2013-12-08 14:34:00,50.0,41.1,29.44,North,0,0.0,0.0,71,0.00,,,0.00,WUHU216HW,2013-12-08 20:34:00,
2013-12-08 14:39:00,50.2,41.2,29.44,North,0,0.0,0.0,71,0.00,,,0.00,WUHU216HW,2013-12-08 20:39:00,
2013-12-08 14:44:00,50.4,41.4,29.44,North,0,0.0,0.0,71,0.00,,,0.00,WUHU216HW,2013-12-08 20:44:00,
2013-12-08 14:49:00,50.6,41.2,29.44,North,0,0.0,0.0,70,0.00,,,0.00,WUHU216HW,2013-12-08 20:49:00,
2013-12-08 14:54:00,50.8,41.4,29.44,North,0,0.0,0.0,70,0.00,,,0.00,WUHU216HW,2013-12-08 20:54:00,
2013-12-08 14:59:00,50.8,41.4,29.44,North,0,0.0,0.0,70,0.00,,,0.00,WUHU216HW,2013-12-08 20:59:00,
2013-12-08 15:04:00,50.8,41.4,29.44,North,0,0.0,0.0,70,0.00,,,0.00,WUHU216HW,2013-12-08 21:04:00,
2013-12-08 15:09:00,50.8,41.4,29.44,North,0,0.0,0.0,70,0.00,,,0.00,WUHU216HW,2013-12-08 21:09:00,
2013-12-08 15:14:00,50.8,41.4,29.44,North,0,0.0,0.0,70,0.00,,,0.00,WUHU216HW,2013-12-08 21:14:00,
2013-12-08 15:19:00,50.9,41.2,29.44,North,0,0.0,0.0,69,0.00,,,0.00,WUHU216HW,2013-12-08 21:19:00,
2013-12-08 15:24:00,50.9,41.2,29.43,North,0,0.0,0.0,69,0.00,,,0.00,WUHU216HW,2013-12-08 21:24:00,
2013-12-08 15:29:00,50.9,41.2,29.43,North,0,0.0,0.0,69,0.00,,,0.00,WUHU216HW,2013-12-08 21:29:00,
2013-12-08 15:35:00,50.8,41.4,29.43,North,0,0.0,0.0,70,0.00,,,0.00,WUHU216HW,2013-12-08 21:35:00,
2013-12-08 15:40:00,50.8,41.1,29.43,North,0,0.0,0.0,69,0.00,,,0.00,WUHU216HW,2013-12-08 21:40:00,
2013-12-08 15:45:00,50.8,41.4,29.43,North,0,0.0,0.0,70,0.00,,,0.00,WUHU216HW,2013-12-08 21:45:00,
2013-12-08 15:50:00,50.9,41.6,29.43,North,0,0.0,0.0,70,0.00,,,0.00,WUHU216HW,2013-12-08 21:50:00,
2013-12-08 15:55:00,51.1,41.8,29.43,North,0,0.0,0.0,70,0.00,,,0.00,WUHU216HW,2013-12-08 21:55:00,
2013-12-08 16:00:00,51.1,41.8,29.42,North,0,0.0,0.0,70,0.00,,,0.00,WUHU216HW,2013-12-08 22:00:00,
2013-12-08 16:05:00,50.9,41.6,29.42,North,0,0.0,0.0,70,0.00,,,0.00,WUHU216HW,2013-12-08 22:05:00,
2013-12-08 16:10:00,50.9,41.6,29.43,North,0,0.0,0.0,70,0.00,,,0.00,WUHU216HW,2013-12-08 22:10:00,
2013-12-08 16:15:00,50.9,41.6,29.43,North,0,0.0,0.0,70,0.00,,,0.00,WUHU216HW,2013-12-08 22:15:00,
2013-12-08 16:20:00,50.8,41.4,29.43,North,0,0.0,0.0,70,0.00,,,0.00,WUHU216HW,2013-12-08 22:20:00,
2013-12-08 16:25:00,50.6,41.2,29.43,North,0,0.0,0.0,70,0.00,,,0.00,WUHU216HW,2013-12-08 22:25:00,
2013-12-08 16:30:00,50.6,41.6,29.43,North,0,0.0,0.0,71,0.00,,,0.00,WUHU216HW,2013-12-08 22:30:00,
2013-12-08 16:35:00,50.4,41.4,29.43,North,0,0.0,0.0,71,0.00,,,0.00,WUHU216HW,2013-12-08 22:35:00,
2013-12-08 16:40:00,50.2,41.2,29.42,North,0,0.0,0.0,71,0.00,,,0.00,WUHU216HW,2013-12-08 22:40:00,
2013-12-08 16:45:00,50.0,41.1,29.42,North,0,0.0,0.0,71,0.00,,,0.00,WUHU216HW,2013-12-08 22:45:00,
2013-12-08 16:50:00,50.0,41.1,29.43,North,0,0.0,0.0,71,0.00,,,0.00,WUHU216HW,2013-12-08 22:50:00,
2013-12-08 16:55:00,49.9,40.9,29.42,North,0,0.0,0.0,71,0.00,,,0.00,WUHU216HW,2013-12-08 22:55:00,
2013-12-08 17:00:00,49.7,40.7,29.42,North,0,0.0,0.0,71,0.00,,,0.00,WUHU216HW,2013-12-08 23:00:00,
2013-12-08 17:06:00,49.5,40.9,29.43,North,0,0.0,0.0,72,0.00,,,0.00,WUHU216HW,2013-12-08 23:06:00,
2013-12-08 17:11:00,49.3,40.7,29.43,North,0,0.0,0.0,72,0.00,,,0.00,WUHU216HW,2013-12-08 23:11:00,
2013-12-08 17:16:00,49.1,40.5,29.43,North,0,0.0,0.0,72,0.00,,,0.00,WUHU216HW,2013-12-08 23:16:00,
2013-12-08 17:21:00,49.0,40.3,29.43,North,0,0.0,0.0,72,0.00,,,0.00,WUHU216HW,2013-12-08 23:21:00,
2013-12-08 17:26:00,48.6,40.0,29.44,North,0,0.0,0.0,72,0.00,,,0.00,WUHU216HW,2013-12-08 23:26:00,
2013-12-08 17:31:00,48.4,39.8,29.44,North,0,0.0,0.0,72,0.00,,,0.00,WUHU216HW,2013-12-08 23:31:00,
2013-12-08 17:36:00,48.1,39.8,29.43,North,0,0.0,0.0,73,0.00,,,0.00,WUHU216HW,2013-12-08 23:36:00,
2013-12-08 17:41:00,47.7,39.4,29.43,North,0,0.0,0.0,73,0.00,,,0.00,WUHU216HW,2013-12-08 23:41:00,
2013-12-08 17:46:00,47.5,39.2,29.44,North,0,0.0,0.0,73,0.00,,,0.00,WUHU216HW,2013-12-08 23:46:00,
2013-12-08 17:51:00,47.2,39.2,29.44,North,0,0.0,0.0,74,0.00,,,0.00,WUHU216HW,2013-12-08 23:51:00,
2013-12-08 17:56:00,46.8,39.0,29.45,North,0,0.0,0.0,74,0.00,,,0.00,WUHU216HW,2013-12-08 23:56:00,
2013-12-08 18:01:00,46.4,38.6,29.45,North,0,0.0,0.0,74,0.00,,,0.00,WUHU216HW,2013-12-09 00:01:00,
2013-12-08 18:06:00,46.3,38.8,29.45,North,0,0.0,0.0,75,0.00,,,0.00,WUHU216HW,2013-12-09 00:06:00,
2013-12-08 18:11:00,45.9,38.4,29.45,North,0,0.0,0.0,75,0.00,,,0.00,WUHU216HW,2013-12-09 00:11:00,
2013-12-08 18:16:00,45.5,38.1,29.45,North,0,0.0,0.0,75,0.00,,,0.00,WUHU216HW,2013-12-09 00:16:00,
2013-12-08 18:21:00,45.4,37.5,29.45,North,0,0.0,0.0,74,0.00,,,0.00,WUHU216HW,2013-12-09 00:21:00,
2013-12-08 18:26:00,45.0,37.5,29.46,North,0,0.0,0.0,75,0.00,,,0.00,WUHU216HW,2013-12-09 00:26:00,
2013-12-08 18:31:00,44.8,37.4,29.46,North,0,0.0,0.0,75,0.00,,,0.00,WUHU216HW,2013-12-09 00:31:00,
2013-12-08 18:36:00,44.6,37.2,29.46,North,0,0.0,0.0,75,0.00,,,0.00,WUHU216HW,2013-12-09 00:36:00,
2013-12-08 18:41:00,44.5,37.4,29.46,North,0,0.0,0.0,76,0.00,,,0.00,WUHU216HW,2013-12-09 00:41:00,
2013-12-08 18:47:00,44.3,37.2,29.47,North,0,0.0,0.0,76,0.00,,,0.00,WUHU216HW,2013-12-09 00:47:00,
2013-12-08 18:52:00,44.1,37.0,29.46,North,0,0.0,0.0,76,0.00,,,0.00,WUHU216HW,2013-12-09 00:52:00,
2013-12-08 18:57:00,43.9,37.2,29.47,North,0,0.0,0.0,77,0.00,,,0.00,WUHU216HW,2013-12-09 00:57:00,
2013-12-08 19:02:00,43.7,37.0,29.47,North,0,0.0,0.0,77,0.00,,,0.00,WUHU216HW,2013-12-09 01:02:00,
2013-12-08 19:07:00,43.7,37.0,29.47,North,0,0.0,0.0,77,0.00,,,0.00,WUHU216HW,2013-12-09 01:07:00,
2013-12-08 19:12:00,43.6,36.8,29.48,North,0,0.0,0.0,77,0.00,,,0.00,WUHU216HW,2013-12-09 01:12:00,
2013-12-08 19:17:00,43.2,36.5,29.48,North,0,0.0,0.0,77,0.00,,,0.00,WUHU216HW,2013-12-09 01:17:00,
2013-12-08 19:22:00,43.0,36.6,29.48,North,0,0.0,0.0,78,0.00,,,0.00,WUHU216HW,2013-12-09 01:22:00,
2013-12-08 19:27:00,43.0,36.6,29.48,North,0,0.0,0.0,78,0.00,,,0.00,WUHU216HW,2013-12-09 01:27:00,
2013-12-08 19:32:00,42.8,36.5,29.48,North,0,0.0,0.0,78,0.00,,,0.00,WUHU216HW,2013-12-09 01:32:00,
2013-12-08 19:37:00,42.8,36.5,29.48,North,0,0.0,0.0,78,0.00,,,0.00,WUHU216HW,2013-12-09 01:37:00,
2013-12-08 19:42:00,42.8,36.5,29.48,North,0,0.0,0.0,78,0.00,,,0.00,WUHU216HW,2013-12-09 01:42:00,
2013-12-08 19:47:00,42.8,36.5,29.48,North,0,0.0,0.0,78,0.00,,,0.00,WUHU216HW,2013-12-09 01:47:00,
2013-12-08 19:52:00,42.7,36.5,29.49,North,0,0.0,0.0,79,0.00,,,0.00,WUHU216HW,2013-12-09 01:52:00,
2013-12-08 19:57:00,42.7,36.5,29.49,North,0,0.0,0.0,79,0.00,,,0.00,WUHU216HW,2013-12-09 01:57:00,
2013-12-08 20:02:00,42.7,36.5,29.49,North,0,0.0,0.0,79,0.00,,,0.00,WUHU216HW,2013-12-09 02:02:00,
2013-12-08 20:07:00,42.7,36.5,29.49,North,0,0.0,0.0,79,0.00,,,0.00,WUHU216HW,2013-12-09 02:07:00,
2013-12-08 20:12:00,42.8,36.7,29.49,North,0,0.0,0.0,79,0.00,,,0.00,WUHU216HW,2013-12-09 02:12:00,
2013-12-08 20:17:00,42.8,37.1,29.49,North,0,0.0,0.0,80,0.00,,,0.00,WUHU216HW,2013-12-09 02:17:00,
2013-12-08 20:22:00,42.8,37.1,29.49,North,0,0.0,0.0,80,0.00,,,0.00,WUHU216HW,2013-12-09 02:22:00,
2013-12-08 20:27:00,42.7,36.9,29.49,North,0,0.0,0.0,80,0.00,,,0.00,WUHU216HW,2013-12-09 02:27:00,
2013-12-08 20:32:00,42.5,36.7,29.49,North,0,0.0,0.0,80,0.00,,,0.00,WUHU216HW,2013-12-09 02:32:00,
2013-12-08 20:38:00,42.3,36.5,29.50,North,0,0.0,0.0,80,0.00,,,0.00,WUHU216HW,2013-12-09 02:38:00,
2013-12-08 20:43:00,42.3,36.5,29.50,North,0,0.0,0.0,80,0.00,,,0.00,WUHU216HW,2013-12-09 02:43:00,
2013-12-08 20:48:00,42.3,36.5,29.50,North,0,0.0,0.0,80,0.00,,,0.00,WUHU216HW,2013-12-09 02:48:00,
2013-12-08 20:53:00,42.5,37.0,29.50,North,0,0.0,0.0,81,0.00,,,0.00,WUHU216HW,2013-12-09 02:53:00,
2013-12-08 20:58:00,42.5,37.0,29.50,North,0,0.0,0.0,81,0.00,,,0.00,WUHU216HW,2013-12-09 02:58:00,
2013-12-08 21:03:00,42.5,37.0,29.50,North,0,0.0,0.0,81,0.00,,,0.00,WUHU216HW,2013-12-09 03:03:00,
2013-12-08 21:08:00,42.5,37.0,29.50,North,0,0.0,0.0,81,0.00,,,0.00,WUHU216HW,2013-12-09 03:08:00,
2013-12-08 21:13:00,42.5,37.0,29.50,North,0,0.0,0.0,81,0.00,,,0.00,WUHU216HW,2013-12-09 03:13:00,
2013-12-08 21:18:00,42.5,37.0,29.50,North,0,0.0,0.0,81,0.00,,,0.00,WUHU216HW,2013-12-09 03:18:00,
2013-12-08 21:23:00,42.5,37.0,29.50,North,0,0.0,0.0,81,0.00,,,0.00,WUHU216HW,2013-12-09 03:23:00,
2013-12-08 21:28:00,42.5,37.0,29.50,North,0,0.0,0.0,81,0.00,,,0.00,WUHU216HW,2013-12-09 03:28:00,
2013-12-08 21:33:00,42.5,37.0,29.50,North,0,0.0,0.0,81,0.00,,,0.00,WUHU216HW,2013-12-09 03:33:00,
2013-12-08 21:38:00,42.5,37.0,29.50,North,0,0.0,0.0,81,0.00,,,0.00,WUHU216HW,2013-12-09 03:38:00,
2013-12-08 21:43:00,42.5,37.0,29.50,North,0,0.0,0.0,81,0.00,,,0.00,WUHU216HW,2013-12-09 03:43:00,
2013-12-08 21:48:00,42.7,37.2,29.50,North,0,0.0,0.0,81,0.00,,,0.00,WUHU216HW,2013-12-09 03:48:00,
2013-12-08 21:53:00,42.7,37.2,29.50,North,0,0.0,0.0,81,0.00,,,0.00,WUHU216HW,2013-12-09 03:53:00,
2013-12-08 21:58:00,42.5,37.0,29.50,North,0,0.0,0.0,81,0.00,,,0.00,WUHU216HW,2013-12-09 03:58:00,
2013-12-08 22:04:00,42.5,37.0,29.50,North,0,0.0,0.0,81,0.00,,,0.00,WUHU216HW,2013-12-09 04:04:00,
2013-12-08 22:09:00,42.5,37.0,29.50,North,0,0.0,0.0,81,0.00,,,0.00,WUHU216HW,2013-12-09 04:09:00,
2013-12-08 22:14:00,42.5,37.0,29.50,North,0,0.0,0.0,81,0.00,,,0.00,WUHU216HW,2013-12-09 04:14:00,
2013-12-08 22:19:00,42.5,37.0,29.50,North,0,0.0,0.0,81,0.00,,,0.00,WUHU216HW,2013-12-09 04:19:00,
2013-12-08 22:24:00,42.5,37.0,29.50,North,0,0.0,0.0,81,0.00,,,0.00,WUHU216HW,2013-12-09 04:24:00,
2013-12-08 22:29:00,42.5,37.4,29.50,North,0,0.0,0.0,82,0.00,,,0.00,WUHU216HW,2013-12-09 04:29:00,
2013-12-08 22:34:00,42.7,37.5,29.50,North,0,0.0,0.0,82,0.00,,,0.00,WUHU216HW,2013-12-09 04:34:00,
2013-12-08 22:39:00,42.7,37.5,29.50,North,0,0.0,0.0,82,0.00,,,0.00,WUHU216HW,2013-12-09 04:39:00,
2013-12-08 22:44:00,42.7,37.5,29.49,North,0,0.0,0.0,82,0.00,,,0.00,WUHU216HW,2013-12-09 04:44:00,
2013-12-08 22:49:00,42.7,37.5,29.50,North,0,0.0,0.0,82,0.00,,,0.00,WUHU216HW,2013-12-09 04:49:00,
2013-12-08 22:54:00,42.7,37.5,29.49,North,0,0.0,0.0,82,0.00,,,0.00,WUHU216HW,2013-12-09 04:54:00,
2013-12-08 22:59:00,42.7,37.5,29.49,North,0,0.0,0.0,82,0.00,,,0.00,WUHU216HW,2013-12-09 04:59:00,
2013-12-08 23:01:00,42.7,37.5,29.49,North,0,0.0,0.0,82,0.00,,,0.00,WUHU216HW,2013-12-09 05:01:00,
2013-12-08 23:02:00,42.7,37.5,29.49,North,0,0.0,0.0,82,0.00,,,0.00,WUHU216HW,2013-12-09 05:02:00,
2013-12-08 23:03:00,42.7,37.5,29.49,North,0,0.0,0.0,82,0.00,,,0.00,WUHU216HW,2013-12-09 05:03:00,
2013-12-08 23:09:00,42.8,37.7,29.48,North,0,0.0,0.0,82,0.00,,,0.00,WUHU216HW,2013-12-09 05:09:00,
2013-12-08 23:14:00,42.8,37.7,29.49,North,0,0.0,0.0,82,0.00,,,0.00,WUHU216HW,2013-12-09 05:14:00,
2013-12-08 23:19:00,43.0,37.9,29.48,North,0,0.0,0.0,82,0.00,,,0.00,WUHU216HW,2013-12-09 05:19:00,
2013-12-08 23:24:00,43.0,37.9,29.48,North,0,0.0,0.0,82,0.00,,,0.00,WUHU216HW,2013-12-09 05:24:00,
2013-12-08 23:29:00,43.2,38.1,29.48,North,0,0.0,0.0,82,0.00,,,0.00,WUHU216HW,2013-12-09 05:29:00,
2013-12-08 23:34:00,43.2,38.1,29.48,North,0,0.0,0.0,82,0.00,,,0.00,WUHU216HW,2013-12-09 05:34:00,
2013-12-08 23:39:00,43.2,38.1,29.48,North,0,0.0,0.0,82,0.00,,,0.00,WUHU216HW,2013-12-09 05:39:00,
2013-12-08 23:44:00,43.2,38.1,29.48,North,0,0.0,0.0,82,0.00,,,0.00,WUHU216HW,2013-12-09 05:44:00,
2013-12-08 23:49:00,43.2,38.1,29.48,North,0,0.0,0.0,82,0.00,,,0.00,WUHU216HW,2013-12-09 05:49:00,
2013-12-08 23:54:00,43.4,38.3,29.48,North,0,0.0,0.0,82,0.00,,,0.00,WUHU216HW,2013-12-09 05:54:00,
2013-12-08 23:59:00,43.6,38.4,29.47,North,0,0.0,0.0,82,0.00,,,0.00,WUHU216HW,2013-12-09 05:59:00,